EST,Max TemperatureF,Mean TemperatureF,Min TemperatureF,Max Dew PointF,MeanDew PointF,Min DewpointF,Max Humidity, Mean Humidity, Min Humidity, Max Sea Level PressureIn, Mean Sea Level PressureIn, Min Sea Level PressureIn, Max VisibilityMiles, Mean VisibilityMiles, Min VisibilityMiles, Max Wind SpeedMPH, Mean Wind SpeedMPH, Max Gust SpeedMPH,PrecipitationIn, CloudCover, Events, WindDirDegrees
2011-12-1,59,45,30,37,33,30,100,78,37,30.39,30.29,30.14,10,9,2,13,2,17,0.00,0,,21
2011-12-2,65,47,29,38,32,28,96,69,26,30.47,30.41,30.37,10,9,5,6,1,8,0.00,0,,297
2011-12-3,65,48,30,37,33,28,100,65,28,30.54,30.50,30.46,10,10,6,12,3,16,0.00,0,,59
2011-12-4,69,57,45,52,45,37,89,69,47,30.47,30.39,30.31,10,10,10,10,4,18,0.00,4,,65
2011-12-5,71,62,53,59,55,48,100,84,66,30.30,30.20,30.15,10,8,0,8,2,10,T,5,Fog,89
2011-12-6,78,67,55,63,59,54,100,87,58,30.17,30.11,30.01,10,6,0,13,4,17,0.00,4,Fog,184
2011-12-7,73,58,42,63,55,34,93,82,65,30.06,29.84,29.68,10,8,1,37,13,48,0.14,5,Rain,233
2011-12-8,56,44,32,34,30,24,89,67,27,30.32,30.25,30.09,10,10,10,10,4,14,0.00,0,,345
2011-12-9,65,49,33,44,38,31,96,72,43,30.30,30.26,30.20,10,10,10,10,2,12,0.00,3,,8
2011-12-10,58,49,40,40,32,26,74,52,35,30.43,30.32,30.21,10,10,10,17,6,24,T,3,,31
2011-12-11,54,44,34,30,27,25,70,54,38,30.53,30.47,30.43,10,10,10,17,10,23,0.00,1,,42
2011-12-12,54,48,41,42,36,27,83,67,45,30.50,30.44,30.40,10,10,6,16,8,21,0.05,6,Rain,32
2011-12-13,68,53,37,46,41,35,93,71,42,30.47,30.41,30.36,10,10,5,7,2,10,0.00,0,,17
2011-12-14,70,55,39,49,45,39,100,78,44,30.41,30.35,30.30,10,9,2,7,1,15,0.00,0,,150
2011-12-15,74,58,42,55,46,41,100,88,49,30.31,30.27,30.17,10,4,0,17,3,23,0.00,2,Fog,216
2011-12-16,76,63,50,56,53,51,100,81,49,30.22,30.17,30.11,10,7,2,16,5,21,0.00,1,,231
2011-12-17,63,51,39,54,47,38,93,78,52,30.23,30.16,30.09,10,10,6,13,3,16,0.00,4,,5
2011-12-18,58,45,32,41,32,24,100,76,28,30.38,30.30,30.21,10,8,1,13,2,17,0.00,0,,18
2011-12-19,66,47,28,47,37,27,93,73,39,30.38,30.31,30.25,10,9,6,12,2,14,0.00,0,,190
2011-12-20,73,57,40,53,46,39,100,86,49,30.26,30.21,30.14,10,5,0,15,2,21,0.00,3,Fog,199
2011-12-21,67,58,49,62,57,48,93,89,81,30.15,30.09,30.03,10,9,6,15,5,22,0.05,6,Rain,195
2011-12-22,79,70,60,63,59,57,93,84,52,30.13,30.08,29.98,10,8,2,16,6,23,0.03,6,Rain,197
2011-12-23,71,61,51,61,55,47,87,70,47,30.24,30.11,29.98,10,10,10,15,6,22,T,4,,271
2011-12-24,63,53,42,47,39,36,83,64,39,30.43,30.36,30.24,10,10,10,13,5,18,0.00,0,,57
2011-12-25,54,47,40,48,42,37,100,84,59,30.39,30.33,30.23,10,8,4,10,2,14,0.19,4,Rain,311
2011-12-26,57,47,37,46,38,31,100,80,41,30.37,30.28,30.21,10,6,0,12,4,15,0.00,4,Fog,33
2011-12-27,68,57,45,63,49,33,93,78,48,30.15,29.85,29.70,10,7,1,31,14,41,1.44,6,Rain,201
2011-12-28,56,46,35,34,32,27,92,63,32,30.12,30.03,29.90,10,10,10,22,7,31,0.00,0,,273
2011-12-29,59,44,28,34,30,27,100,71,33,30.14,30.09,30.04,10,8,2,14,3,17,0.00,0,,222
2011-12-30,66,49,32,46,39,31,92,72,44,30.17,30.07,30.02,10,10,10,12,5,16,0.00,2,,193
2011-12-31,71,56,40,52,40,30,96,60,23,30.18,30.07,29.99,10,10,8,21,7,29,0.00,0,,245